sensor_id;sensor_type;location;lat;lon;timestamp;P1;durP1;ratioP1;P2;durP2;ratioP2
59089;SDS011;44878;50.102;18.982;2023-03-18T00:02:06;72.40;;;53.93;;
59089;SDS011;44878;50.102;18.982;2023-03-18T00:04:32;72.73;;;55.53;;
59089;SDS011;44878;50.102;18.982;2023-03-18T00:06:59;76.30;;;56.97;;
59089;SDS011;44878;50.102;18.982;2023-03-18T00:09:25;70.10;;;53.97;;
59089;SDS011;44878;50.102;18.982;2023-03-18T00:11:51;68.87;;;53.07;;
59089;SDS011;44878;50.102;18.982;2023-03-18T00:14:18;64.03;;;49.78;;
59089;SDS011;44878;50.102;18.982;2023-03-18T00:16:45;59.97;;;49.40;;
59089;SDS011;44878;50.102;18.982;2023-03-18T00:19:11;62.73;;;49.17;;
59089;SDS011;44878;50.102;18.982;2023-03-18T00:21:37;59.83;;;49.25;;
59089;SDS011;44878;50.102;18.982;2023-03-18T00:24:06;57.50;;;46.57;;
59089;SDS011;44878;50.102;18.982;2023-03-18T00:26:32;58.30;;;47.17;;
59089;SDS011;44878;50.102;18.982;2023-03-18T00:28:58;56.57;;;47.33;;
59089;SDS011;44878;50.102;18.982;2023-03-18T00:31:27;56.27;;;46.23;;
59089;SDS011;44878;50.102;18.982;2023-03-18T00:33:57;53.90;;;46.83;;
59089;SDS011;44878;50.102;18.982;2023-03-18T00:36:26;56.20;;;45.97;;
59089;SDS011;44878;50.102;18.982;2023-03-18T00:38:53;53.93;;;45.50;;
59089;SDS011;44878;50.102;18.982;2023-03-18T00:41:23;52.87;;;44.20;;
59089;SDS011;44878;50.102;18.982;2023-03-18T00:43:49;55.57;;;43.40;;
59089;SDS011;44878;50.102;18.982;2023-03-18T00:46:20;54.97;;;45.90;;
59089;SDS011;44878;50.102;18.982;2023-03-18T00:48:46;56.80;;;45.28;;
59089;SDS011;44878;50.102;18.982;2023-03-18T00:51:13;57.17;;;46.00;;
59089;SDS011;44878;50.102;18.982;2023-03-18T00:53:41;54.07;;;45.90;;
59089;SDS011;44878;50.102;18.982;2023-03-18T00:56:08;54.40;;;46.53;;
59089;SDS011;44878;50.102;18.982;2023-03-18T00:58:34;57.63;;;47.47;;
59089;SDS011;44878;50.102;18.982;2023-03-18T01:03:27;57.60;;;49.00;;
59089;SDS011;44878;50.102;18.982;2023-03-18T01:05:53;53.70;;;44.83;;
59089;SDS011;44878;50.102;18.982;2023-03-18T01:08:19;58.37;;;48.80;;
59089;SDS011;44878;50.102;18.982;2023-03-18T01:10:46;60.17;;;48.42;;
59089;SDS011;44878;50.102;18.982;2023-03-18T01:13:13;56.03;;;49.47;;
59089;SDS011;44878;50.102;18.982;2023-03-18T01:15:39;57.50;;;47.63;;
59089;SDS011;44878;50.102;18.982;2023-03-18T01:18:06;57.83;;;47.43;;
59089;SDS011;44878;50.102;18.982;2023-03-18T01:20:37;59.53;;;48.47;;
59089;SDS011;44878;50.102;18.982;2023-03-18T01:23:04;59.60;;;49.03;;
59089;SDS011;44878;50.102;18.982;2023-03-18T01:25:30;62.78;;;50.78;;
59089;SDS011;44878;50.102;18.982;2023-03-18T01:27:56;56.80;;;46.93;;
59089;SDS011;44878;50.102;18.982;2023-03-18T01:30:23;58.27;;;46.90;;
59089;SDS011;44878;50.102;18.982;2023-03-18T01:32:48;55.67;;;44.40;;
59089;SDS011;44878;50.102;18.982;2023-03-18T01:35:14;58.53;;;47.03;;
59089;SDS011;44878;50.102;18.982;2023-03-18T01:37:40;59.77;;;47.97;;
59089;SDS011;44878;50.102;18.982;2023-03-18T01:40:09;53.90;;;45.72;;
59089;SDS011;44878;50.102;18.982;2023-03-18T01:42:35;60.05;;;50.70;;
59089;SDS011;44878;50.102;18.982;2023-03-18T01:45:16;60.20;;;48.00;;
59089;SDS011;44878;50.102;18.982;2023-03-18T01:47:44;54.37;;;45.87;;
59089;SDS011;44878;50.102;18.982;2023-03-18T01:50:17;55.25;;;45.97;;
59089;SDS011;44878;50.102;18.982;2023-03-18T01:52:44;54.17;;;43.43;;
59089;SDS011;44878;50.102;18.982;2023-03-18T01:55:14;53.97;;;42.92;;
59089;SDS011;44878;50.102;18.982;2023-03-18T01:57:40;57.40;;;43.60;;
59089;SDS011;44878;50.102;18.982;2023-03-18T02:00:08;55.15;;;43.10;;
59089;SDS011;44878;50.102;18.982;2023-03-18T02:02:35;54.97;;;43.92;;
59089;SDS011;44878;50.102;18.982;2023-03-18T02:05:03;58.60;;;44.85;;
59089;SDS011;44878;50.102;18.982;2023-03-18T02:07:32;55.75;;;45.60;;
59089;SDS011;44878;50.102;18.982;2023-03-18T02:09:59;54.83;;;44.33;;
59089;SDS011;44878;50.102;18.982;2023-03-18T02:12:31;56.00;;;45.10;;
59089;SDS011;44878;50.102;18.982;2023-03-18T02:14:58;50.90;;;43.87;;
59089;SDS011;44878;50.102;18.982;2023-03-18T02:17:26;53.20;;;45.42;;
59089;SDS011;44878;50.102;18.982;2023-03-18T02:20:01;53.83;;;43.17;;
59089;SDS011;44878;50.102;18.982;2023-03-18T02:22:38;55.87;;;46.57;;
59089;SDS011;44878;50.102;18.982;2023-03-18T02:25:23;51.97;;;43.92;;
59089;SDS011;44878;50.102;18.982;2023-03-18T02:27:52;52.77;;;41.70;;
59089;SDS011;44878;50.102;18.982;2023-03-18T02:30:24;53.43;;;44.13;;
59089;SDS011;44878;50.102;18.982;2023-03-18T02:32:54;51.00;;;42.63;;
59089;SDS011;44878;50.102;18.982;2023-03-18T02:35:25;53.47;;;43.07;;
59089;SDS011;44878;50.102;18.982;2023-03-18T02:37:51;54.57;;;42.17;;
59089;SDS011;44878;50.102;18.982;2023-03-18T02:42:52;50.33;;;41.50;;
59089;SDS011;44878;50.102;18.982;2023-03-18T02:48:02;51.37;;;41.67;;
59089;SDS011;44878;50.102;18.982;2023-03-18T02:50:29;50.70;;;41.92;;
59089;SDS011;44878;50.102;18.982;2023-03-18T02:52:58;50.90;;;39.20;;
59089;SDS011;44878;50.102;18.982;2023-03-18T02:55:28;52.87;;;41.53;;
59089;SDS011;44878;50.102;18.982;2023-03-18T02:57:57;47.87;;;39.23;;
59089;SDS011;44878;50.102;18.982;2023-03-18T03:00:26;46.50;;;38.67;;
59089;SDS011;44878;50.102;18.982;2023-03-18T03:02:55;52.80;;;39.90;;
59089;SDS011;44878;50.102;18.982;2023-03-18T03:05:21;48.60;;;41.60;;
59089;SDS011;44878;50.102;18.982;2023-03-18T03:07:47;48.33;;;40.30;;
59089;SDS011;44878;50.102;18.982;2023-03-18T03:10:13;49.97;;;40.43;;
59089;SDS011;44878;50.102;18.982;2023-03-18T03:12:39;50.17;;;42.13;;
59089;SDS011;44878;50.102;18.982;2023-03-18T03:15:06;53.50;;;44.23;;
59089;SDS011;44878;50.102;18.982;2023-03-18T03:17:32;49.20;;;43.53;;
59089;SDS011;44878;50.102;18.982;2023-03-18T03:19:58;48.93;;;41.93;;
59089;SDS011;44878;50.102;18.982;2023-03-18T03:22:24;46.43;;;39.73;;
59089;SDS011;44878;50.102;18.982;2023-03-18T03:24:54;50.75;;;43.20;;
59089;SDS011;44878;50.102;18.982;2023-03-18T03:27:20;50.37;;;44.87;;
59089;SDS011;44878;50.102;18.982;2023-03-18T03:29:46;51.33;;;45.00;;
59089;SDS011;44878;50.102;18.982;2023-03-18T03:32:12;59.83;;;51.37;;
59089;SDS011;44878;50.102;18.982;2023-03-18T03:34:38;85.17;;;67.93;;
59089;SDS011;44878;50.102;18.982;2023-03-18T03:37:03;81.97;;;70.70;;
59089;SDS011;44878;50.102;18.982;2023-03-18T03:39:30;87.87;;;75.93;;
59089;SDS011;44878;50.102;18.982;2023-03-18T03:41:59;70.23;;;58.83;;
59089;SDS011;44878;50.102;18.982;2023-03-18T03:44:25;59.47;;;50.53;;
59089;SDS011;44878;50.102;18.982;2023-03-18T03:46:51;58.73;;;48.83;;
59089;SDS011;44878;50.102;18.982;2023-03-18T03:49:17;55.17;;;46.40;;
59089;SDS011;44878;50.102;18.982;2023-03-18T03:51:43;51.57;;;44.53;;
59089;SDS011;44878;50.102;18.982;2023-03-18T03:54:10;56.40;;;45.90;;
59089;SDS011;44878;50.102;18.982;2023-03-18T03:56:37;51.63;;;45.70;;
59089;SDS011;44878;50.102;18.982;2023-03-18T03:59:04;52.20;;;45.60;;
59089;SDS011;44878;50.102;18.982;2023-03-18T04:01:29;51.37;;;45.40;;
59089;SDS011;44878;50.102;18.982;2023-03-18T04:03:59;54.10;;;48.20;;
59089;SDS011;44878;50.102;18.982;2023-03-18T04:06:27;52.03;;;45.00;;
59089;SDS011;44878;50.102;18.982;2023-03-18T04:08:53;53.97;;;46.23;;
59089;SDS011;44878;50.102;18.982;2023-03-18T04:11:19;55.70;;;46.77;;
59089;SDS011;44878;50.102;18.982;2023-03-18T04:13:45;54.33;;;44.43;;
59089;SDS011;44878;50.102;18.982;2023-03-18T04:16:11;51.90;;;46.23;;
59089;SDS011;44878;50.102;18.982;2023-03-18T04:18:40;51.30;;;44.57;;
59089;SDS011;44878;50.102;18.982;2023-03-18T04:21:06;50.03;;;44.40;;
59089;SDS011;44878;50.102;18.982;2023-03-18T04:23:33;53.57;;;43.90;;
59089;SDS011;44878;50.102;18.982;2023-03-18T04:25:58;48.93;;;43.70;;
59089;SDS011;44878;50.102;18.982;2023-03-18T04:28:25;49.57;;;41.23;;
59089;SDS011;44878;50.102;18.982;2023-03-18T04:30:50;48.87;;;43.63;;
59089;SDS011;44878;50.102;18.982;2023-03-18T04:33:17;44.80;;;39.20;;
59089;SDS011;44878;50.102;18.982;2023-03-18T04:35:44;48.00;;;39.88;;
59089;SDS011;44878;50.102;18.982;2023-03-18T04:38:10;48.77;;;39.97;;
59089;SDS011;44878;50.102;18.982;2023-03-18T04:40:39;47.63;;;40.03;;
59089;SDS011;44878;50.102;18.982;2023-03-18T04:43:07;46.33;;;41.03;;
59089;SDS011;44878;50.102;18.982;2023-03-18T04:45:34;53.73;;;41.90;;
59089;SDS011;44878;50.102;18.982;2023-03-18T04:48:00;49.43;;;40.47;;
59089;SDS011;44878;50.102;18.982;2023-03-18T04:50:26;54.10;;;42.43;;
59089;SDS011;44878;50.102;18.982;2023-03-18T04:52:53;51.15;;;42.50;;
59089;SDS011;44878;50.102;18.982;2023-03-18T04:55:19;50.87;;;44.00;;
59089;SDS011;44878;50.102;18.982;2023-03-18T04:57:46;53.17;;;43.75;;
59089;SDS011;44878;50.102;18.982;2023-03-18T05:00:16;47.43;;;41.13;;
59089;SDS011;44878;50.102;18.982;2023-03-18T05:02:46;53.63;;;45.13;;
59089;SDS011;44878;50.102;18.982;2023-03-18T05:05:11;52.43;;;43.43;;
59089;SDS011;44878;50.102;18.982;2023-03-18T05:07:38;45.87;;;40.83;;
59089;SDS011;44878;50.102;18.982;2023-03-18T05:10:04;53.27;;;42.43;;
59089;SDS011;44878;50.102;18.982;2023-03-18T05:12:32;52.88;;;43.67;;
59089;SDS011;44878;50.102;18.982;2023-03-18T05:14:57;48.33;;;41.37;;
59089;SDS011;44878;50.102;18.982;2023-03-18T05:17:23;45.63;;;40.30;;
59089;SDS011;44878;50.102;18.982;2023-03-18T05:19:53;44.83;;;37.37;;
59089;SDS011;44878;50.102;18.982;2023-03-18T05:22:19;52.07;;;41.43;;
59089;SDS011;44878;50.102;18.982;2023-03-18T05:24:45;45.80;;;37.80;;
59089;SDS011;44878;50.102;18.982;2023-03-18T05:27:12;48.77;;;40.20;;
59089;SDS011;44878;50.102;18.982;2023-03-18T05:29:38;47.10;;;39.80;;
59089;SDS011;44878;50.102;18.982;2023-03-18T05:32:05;48.92;;;41.17;;
59089;SDS011;44878;50.102;18.982;2023-03-18T05:34:35;47.60;;;40.83;;
59089;SDS011;44878;50.102;18.982;2023-03-18T05:37:02;45.77;;;39.87;;
59089;SDS011;44878;50.102;18.982;2023-03-18T05:39:29;46.23;;;39.97;;
59089;SDS011;44878;50.102;18.982;2023-03-18T05:41:59;43.38;;;38.67;;
59089;SDS011;44878;50.102;18.982;2023-03-18T05:44:25;46.83;;;39.53;;
59089;SDS011;44878;50.102;18.982;2023-03-18T05:46:51;44.90;;;37.13;;
59089;SDS011;44878;50.102;18.982;2023-03-18T05:49:18;41.07;;;33.27;;
59089;SDS011;44878;50.102;18.982;2023-03-18T05:51:44;43.83;;;35.53;;
59089;SDS011;44878;50.102;18.982;2023-03-18T05:54:11;41.17;;;33.87;;
59089;SDS011;44878;50.102;18.982;2023-03-18T05:56:37;38.10;;;33.17;;
59089;SDS011;44878;50.102;18.982;2023-03-18T05:59:04;39.70;;;33.60;;
59089;SDS011;44878;50.102;18.982;2023-03-18T06:01:31;37.20;;;31.13;;
59089;SDS011;44878;50.102;18.982;2023-03-18T06:03:57;36.73;;;30.40;;
59089;SDS011;44878;50.102;18.982;2023-03-18T06:06:25;38.25;;;32.15;;
59089;SDS011;44878;50.102;18.982;2023-03-18T06:08:51;38.83;;;31.20;;
59089;SDS011;44878;50.102;18.982;2023-03-18T06:11:17;36.33;;;31.53;;
59089;SDS011;44878;50.102;18.982;2023-03-18T06:13:43;39.63;;;32.40;;
59089;SDS011;44878;50.102;18.982;2023-03-18T06:16:10;39.40;;;33.53;;
59089;SDS011;44878;50.102;18.982;2023-03-18T06:18:36;38.07;;;31.30;;
59089;SDS011;44878;50.102;18.982;2023-03-18T06:21:02;39.37;;;32.00;;
59089;SDS011;44878;50.102;18.982;2023-03-18T06:23:28;37.40;;;31.77;;
59089;SDS011;44878;50.102;18.982;2023-03-18T06:25:57;36.17;;;30.27;;
59089;SDS011;44878;50.102;18.982;2023-03-18T06:28:23;38.20;;;31.02;;
59089;SDS011;44878;50.102;18.982;2023-03-18T06:30:49;37.00;;;30.05;;
59089;SDS011;44878;50.102;18.982;2023-03-18T06:33:15;34.83;;;29.45;;
59089;SDS011;44878;50.102;18.982;2023-03-18T06:35:41;35.72;;;29.02;;
59089;SDS011;44878;50.102;18.982;2023-03-18T06:38:06;34.10;;;28.98;;
59089;SDS011;44878;50.102;18.982;2023-03-18T06:40:33;34.65;;;29.05;;
59089;SDS011;44878;50.102;18.982;2023-03-18T06:43:02;32.78;;;28.15;;
59089;SDS011;44878;50.102;18.982;2023-03-18T06:45:29;35.60;;;27.83;;
59089;SDS011;44878;50.102;18.982;2023-03-18T06:47:55;35.92;;;28.60;;
59089;SDS011;44878;50.102;18.982;2023-03-18T06:50:21;38.03;;;30.45;;
59089;SDS011;44878;50.102;18.982;2023-03-18T06:52:48;31.73;;;28.33;;
59089;SDS011;44878;50.102;18.982;2023-03-18T06:55:14;31.60;;;28.13;;
59089;SDS011;44878;50.102;18.982;2023-03-18T06:57:40;32.45;;;27.15;;
59089;SDS011;44878;50.102;18.982;2023-03-18T07:00:07;33.95;;;28.42;;
59089;SDS011;44878;50.102;18.982;2023-03-18T07:02:33;30.60;;;26.67;;
59089;SDS011;44878;50.102;18.982;2023-03-18T07:04:59;32.17;;;26.63;;
59089;SDS011;44878;50.102;18.982;2023-03-18T07:07:29;32.07;;;27.27;;
59089;SDS011;44878;50.102;18.982;2023-03-18T07:09:55;31.30;;;27.13;;
59089;SDS011;44878;50.102;18.982;2023-03-18T07:12:21;34.20;;;28.88;;
59089;SDS011;44878;50.102;18.982;2023-03-18T07:14:47;33.67;;;27.90;;
59089;SDS011;44878;50.102;18.982;2023-03-18T07:17:13;30.23;;;26.77;;
59089;SDS011;44878;50.102;18.982;2023-03-18T07:19:39;30.70;;;26.20;;
59089;SDS011;44878;50.102;18.982;2023-03-18T07:22:06;29.30;;;26.10;;
59089;SDS011;44878;50.102;18.982;2023-03-18T07:24:32;32.05;;;26.45;;
59089;SDS011;44878;50.102;18.982;2023-03-18T07:26:57;31.58;;;26.67;;
59089;SDS011;44878;50.102;18.982;2023-03-18T07:29:24;30.92;;;26.42;;
59089;SDS011;44878;50.102;18.982;2023-03-18T07:31:49;29.67;;;25.70;;
59089;SDS011;44878;50.102;18.982;2023-03-18T07:34:19;32.17;;;25.63;;
59089;SDS011;44878;50.102;18.982;2023-03-18T07:36:45;30.48;;;25.77;;
59089;SDS011;44878;50.102;18.982;2023-03-18T07:39:11;27.65;;;24.73;;
59089;SDS011;44878;50.102;18.982;2023-03-18T07:41:37;27.02;;;24.23;;
59089;SDS011;44878;50.102;18.982;2023-03-18T07:44:04;28.23;;;25.17;;
59089;SDS011;44878;50.102;18.982;2023-03-18T07:46:31;29.83;;;26.70;;
59089;SDS011;44878;50.102;18.982;2023-03-18T07:48:57;26.98;;;22.92;;
59089;SDS011;44878;50.102;18.982;2023-03-18T07:51:22;30.50;;;26.52;;
59089;SDS011;44878;50.102;18.982;2023-03-18T07:53:48;28.70;;;25.45;;
59089;SDS011;44878;50.102;18.982;2023-03-18T07:56:16;27.55;;;24.30;;
59089;SDS011;44878;50.102;18.982;2023-03-18T07:58:42;28.40;;;24.00;;
59089;SDS011;44878;50.102;18.982;2023-03-18T08:01:07;26.83;;;23.65;;
59089;SDS011;44878;50.102;18.982;2023-03-18T08:03:34;30.88;;;25.08;;
59089;SDS011;44878;50.102;18.982;2023-03-18T08:06:00;27.17;;;24.10;;
59089;SDS011;44878;50.102;18.982;2023-03-18T08:08:29;29.20;;;24.58;;
59089;SDS011;44878;50.102;18.982;2023-03-18T08:10:56;29.50;;;26.42;;
59089;SDS011;44878;50.102;18.982;2023-03-18T08:13:24;27.83;;;22.95;;
59089;SDS011;44878;50.102;18.982;2023-03-18T08:15:50;27.75;;;23.98;;
59089;SDS011;44878;50.102;18.982;2023-03-18T08:18:16;28.80;;;23.85;;
59089;SDS011;44878;50.102;18.982;2023-03-18T08:20:42;27.25;;;23.48;;
59089;SDS011;44878;50.102;18.982;2023-03-18T08:23:09;24.98;;;22.33;;
59089;SDS011;44878;50.102;18.982;2023-03-18T08:25:35;27.35;;;24.42;;
59089;SDS011;44878;50.102;18.982;2023-03-18T08:28:01;27.20;;;23.60;;
59089;SDS011;44878;50.102;18.982;2023-03-18T08:30:27;25.60;;;22.35;;
59089;SDS011;44878;50.102;18.982;2023-03-18T08:32:53;26.88;;;23.98;;
59089;SDS011;44878;50.102;18.982;2023-03-18T08:35:20;28.83;;;23.50;;
59089;SDS011;44878;50.102;18.982;2023-03-18T08:37:46;25.75;;;21.77;;
59089;SDS011;44878;50.102;18.982;2023-03-18T08:40:12;49.58;;;44.58;;
59089;SDS011;44878;50.102;18.982;2023-03-18T08:42:38;26.67;;;21.58;;
59089;SDS011;44878;50.102;18.982;2023-03-18T08:45:07;23.05;;;19.55;;
59089;SDS011;44878;50.102;18.982;2023-03-18T08:47:33;25.75;;;22.52;;
59089;SDS011;44878;50.102;18.982;2023-03-18T08:49:59;23.33;;;20.67;;
59089;SDS011;44878;50.102;18.982;2023-03-18T08:52:25;24.25;;;21.33;;
59089;SDS011;44878;50.102;18.982;2023-03-18T08:54:51;25.52;;;21.23;;
59089;SDS011;44878;50.102;18.982;2023-03-18T08:57:17;23.10;;;19.85;;
59089;SDS011;44878;50.102;18.982;2023-03-18T08:59:42;22.35;;;19.80;;
59089;SDS011;44878;50.102;18.982;2023-03-18T09:02:12;23.60;;;19.50;;
59089;SDS011;44878;50.102;18.982;2023-03-18T09:04:39;25.65;;;22.58;;
59089;SDS011;44878;50.102;18.982;2023-03-18T09:07:05;22.45;;;19.70;;
59089;SDS011;44878;50.102;18.982;2023-03-18T09:09:30;22.90;;;19.27;;
59089;SDS011;44878;50.102;18.982;2023-03-18T09:11:57;21.67;;;18.70;;
59089;SDS011;44878;50.102;18.982;2023-03-18T09:14:22;20.88;;;18.08;;
59089;SDS011;44878;50.102;18.982;2023-03-18T09:16:48;19.63;;;17.20;;
59089;SDS011;44878;50.102;18.982;2023-03-18T09:19:14;20.25;;;18.05;;
59089;SDS011;44878;50.102;18.982;2023-03-18T09:21:40;20.35;;;17.27;;
59089;SDS011;44878;50.102;18.982;2023-03-18T09:24:06;19.58;;;17.48;;
59089;SDS011;44878;50.102;18.982;2023-03-18T09:26:32;20.30;;;17.08;;
59089;SDS011;44878;50.102;18.982;2023-03-18T09:28:58;23.40;;;18.73;;
59089;SDS011;44878;50.102;18.982;2023-03-18T09:31:24;26.20;;;18.25;;
59089;SDS011;44878;50.102;18.982;2023-03-18T09:33:50;25.45;;;22.65;;
59089;SDS011;44878;50.102;18.982;2023-03-18T09:36:16;19.98;;;16.20;;
59089;SDS011;44878;50.102;18.982;2023-03-18T09:38:42;17.83;;;14.70;;
59089;SDS011;44878;50.102;18.982;2023-03-18T09:49:48;16.83;;;14.05;;
59089;SDS011;44878;50.102;18.982;2023-03-18T09:51:49;16.23;;;12.25;;
59089;SDS011;44878;50.102;18.982;2023-03-18T09:56:44;18.52;;;15.65;;
59089;SDS011;44878;50.102;18.982;2023-03-18T10:01:43;17.00;;;13.05;;
59089;SDS011;44878;50.102;18.982;2023-03-18T10:07:00;15.02;;;10.32;;
59089;SDS011;44878;50.102;18.982;2023-03-18T10:10:02;15.50;;;11.30;;
59089;SDS011;44878;50.102;18.982;2023-03-18T10:12:29;12.73;;;10.10;;
59089;SDS011;44878;50.102;18.982;2023-03-18T10:17:45;12.88;;;9.73;;
59089;SDS011;44878;50.102;18.982;2023-03-18T10:20:17;11.65;;;9.27;;
59089;SDS011;44878;50.102;18.982;2023-03-18T10:22:48;11.68;;;9.65;;
59089;SDS011;44878;50.102;18.982;2023-03-18T10:33:40;15.27;;;12.30;;
59089;SDS011;44878;50.102;18.982;2023-03-18T10:36:20;14.23;;;11.57;;
59089;SDS011;44878;50.102;18.982;2023-03-18T10:38:52;15.02;;;12.20;;
59089;SDS011;44878;50.102;18.982;2023-03-18T10:41:27;14.65;;;12.18;;
59089;SDS011;44878;50.102;18.982;2023-03-18T10:43:54;15.27;;;13.00;;
59089;SDS011;44878;50.102;18.982;2023-03-18T10:46:21;16.40;;;12.60;;
59089;SDS011;44878;50.102;18.982;2023-03-18T10:48:53;16.27;;;12.35;;
59089;SDS011;44878;50.102;18.982;2023-03-18T10:53:55;15.50;;;13.57;;
59089;SDS011;44878;50.102;18.982;2023-03-18T10:56:21;15.95;;;12.10;;
59089;SDS011;44878;50.102;18.982;2023-03-18T10:58:48;16.75;;;13.13;;
59089;SDS011;44878;50.102;18.982;2023-03-18T11:01:15;14.90;;;12.75;;
59089;SDS011;44878;50.102;18.982;2023-03-18T11:03:46;15.35;;;13.73;;
59089;SDS011;44878;50.102;18.982;2023-03-18T11:06:26;15.43;;;13.10;;
59089;SDS011;44878;50.102;18.982;2023-03-18T11:08:59;17.08;;;13.40;;
59089;SDS011;44878;50.102;18.982;2023-03-18T11:11:29;17.75;;;13.07;;
59089;SDS011;44878;50.102;18.982;2023-03-18T11:13:58;16.08;;;13.45;;
59089;SDS011;44878;50.102;18.982;2023-03-18T11:17:16;19.25;;;14.70;;
59089;SDS011;44878;50.102;18.982;2023-03-18T11:19:25;20.77;;;15.50;;
59089;SDS011;44878;50.102;18.982;2023-03-18T11:22:14;29.30;;;26.30;;
59089;SDS011;44878;50.102;18.982;2023-03-18T11:24:41;17.02;;;14.15;;
59089;SDS011;44878;50.102;18.982;2023-03-18T11:27:27;21.23;;;13.45;;
59089;SDS011;44878;50.102;18.982;2023-03-18T11:29:58;15.00;;;12.23;;
59089;SDS011;44878;50.102;18.982;2023-03-18T11:34:55;17.73;;;12.98;;
59089;SDS011;44878;50.102;18.982;2023-03-18T11:37:31;14.57;;;11.05;;
59089;SDS011;44878;50.102;18.982;2023-03-18T11:40:19;13.13;;;9.70;;
59089;SDS011;44878;50.102;18.982;2023-03-18T11:42:45;15.50;;;10.20;;
59089;SDS011;44878;50.102;18.982;2023-03-18T11:45:26;12.90;;;9.68;;
59089;SDS011;44878;50.102;18.982;2023-03-18T11:47:55;12.43;;;8.70;;
59089;SDS011;44878;50.102;18.982;2023-03-18T11:50:22;10.13;;;7.78;;
59089;SDS011;44878;50.102;18.982;2023-03-18T11:55:42;8.73;;;6.53;;
59089;SDS011;44878;50.102;18.982;2023-03-18T11:58:24;8.50;;;6.53;;
59089;SDS011;44878;50.102;18.982;2023-03-18T12:06:20;7.03;;;5.28;;
59089;SDS011;44878;50.102;18.982;2023-03-18T12:09:00;8.35;;;6.75;;
59089;SDS011;44878;50.102;18.982;2023-03-18T12:27:11;8.68;;;4.70;;
59089;SDS011;44878;50.102;18.982;2023-03-18T12:32:18;6.70;;;5.18;;
59089;SDS011;44878;50.102;18.982;2023-03-18T12:42:23;12.02;;;5.45;;
59089;SDS011;44878;50.102;18.982;2023-03-18T12:44:57;9.00;;;6.15;;
59089;SDS011;44878;50.102;18.982;2023-03-18T12:47:29;7.40;;;6.00;;
59089;SDS011;44878;50.102;18.982;2023-03-18T12:49:57;8.35;;;5.97;;
59089;SDS011;44878;50.102;18.982;2023-03-18T12:54:56;8.98;;;6.68;;
59089;SDS011;44878;50.102;18.982;2023-03-18T12:57:47;7.70;;;5.80;;
59089;SDS011;44878;50.102;18.982;2023-03-18T13:05:18;7.72;;;6.45;;
59089;SDS011;44878;50.102;18.982;2023-03-18T13:07:47;8.13;;;5.72;;
59089;SDS011;44878;50.102;18.982;2023-03-18T13:10:19;8.20;;;6.10;;
59089;SDS011;44878;50.102;18.982;2023-03-18T13:12:47;8.18;;;7.30;;
59089;SDS011;44878;50.102;18.982;2023-03-18T13:15:20;9.07;;;6.32;;
59089;SDS011;44878;50.102;18.982;2023-03-18T13:17:51;7.95;;;6.15;;
59089;SDS011;44878;50.102;18.982;2023-03-18T13:40:41;7.97;;;6.30;;
59089;SDS011;44878;50.102;18.982;2023-03-18T13:43:12;8.70;;;6.63;;
59089;SDS011;44878;50.102;18.982;2023-03-18T13:45:41;7.53;;;6.22;;
59089;SDS011;44878;50.102;18.982;2023-03-18T13:48:42;7.97;;;5.95;;
59089;SDS011;44878;50.102;18.982;2023-03-18T13:54:03;8.38;;;5.65;;
59089;SDS011;44878;50.102;18.982;2023-03-18T13:56:49;8.45;;;5.70;;
59089;SDS011;44878;50.102;18.982;2023-03-18T14:04:29;7.72;;;6.25;;
59089;SDS011;44878;50.102;18.982;2023-03-18T14:07:10;7.72;;;5.20;;
59089;SDS011;44878;50.102;18.982;2023-03-18T14:15:02;7.03;;;5.22;;
59089;SDS011;44878;50.102;18.982;2023-03-18T14:22:37;5.95;;;4.38;;
59089;SDS011;44878;50.102;18.982;2023-03-18T14:25:08;6.25;;;4.93;;
59089;SDS011;44878;50.102;18.982;2023-03-18T14:30:55;7.55;;;5.57;;
59089;SDS011;44878;50.102;18.982;2023-03-18T14:33:03;7.05;;;5.03;;
59089;SDS011;44878;50.102;18.982;2023-03-18T14:35:33;6.88;;;4.20;;
59089;SDS011;44878;50.102;18.982;2023-03-18T14:40:46;5.60;;;4.68;;
59089;SDS011;44878;50.102;18.982;2023-03-18T14:43:24;7.45;;;5.22;;
59089;SDS011;44878;50.102;18.982;2023-03-18T14:45:50;5.97;;;4.63;;
59089;SDS011;44878;50.102;18.982;2023-03-18T14:48:39;6.15;;;4.93;;
59089;SDS011;44878;50.102;18.982;2023-03-18T14:51:12;6.78;;;4.53;;
59089;SDS011;44878;50.102;18.982;2023-03-18T14:53:40;6.25;;;5.00;;
59089;SDS011;44878;50.102;18.982;2023-03-18T14:56:17;6.68;;;4.97;;
59089;SDS011;44878;50.102;18.982;2023-03-18T14:58:43;7.40;;;4.63;;
59089;SDS011;44878;50.102;18.982;2023-03-18T15:01:11;6.40;;;4.78;;
59089;SDS011;44878;50.102;18.982;2023-03-18T15:03:38;7.25;;;4.88;;
59089;SDS011;44878;50.102;18.982;2023-03-18T15:06:05;8.05;;;4.68;;
59089;SDS011;44878;50.102;18.982;2023-03-18T15:08:33;6.40;;;5.10;;
59089;SDS011;44878;50.102;18.982;2023-03-18T15:11:03;6.47;;;4.68;;
59089;SDS011;44878;50.102;18.982;2023-03-18T15:13:34;8.30;;;4.70;;
59089;SDS011;44878;50.102;18.982;2023-03-18T15:16:10;6.32;;;4.68;;
59089;SDS011;44878;50.102;18.982;2023-03-18T15:18:36;31.05;;;27.58;;
59089;SDS011;44878;50.102;18.982;2023-03-18T15:21:07;9.23;;;6.35;;
59089;SDS011;44878;50.102;18.982;2023-03-18T15:23:34;7.00;;;5.18;;
59089;SDS011;44878;50.102;18.982;2023-03-18T15:26:05;6.60;;;5.15;;
59089;SDS011;44878;50.102;18.982;2023-03-18T15:28:30;26.25;;;22.98;;
59089;SDS011;44878;50.102;18.982;2023-03-18T15:30:57;7.30;;;5.57;;
59089;SDS011;44878;50.102;18.982;2023-03-18T15:33:28;6.72;;;5.18;;
59089;SDS011;44878;50.102;18.982;2023-03-18T15:35:56;7.45;;;5.63;;
59089;SDS011;44878;50.102;18.982;2023-03-18T15:38:29;6.68;;;5.20;;
59089;SDS011;44878;50.102;18.982;2023-03-18T15:43:28;6.03;;;4.95;;
59089;SDS011;44878;50.102;18.982;2023-03-18T15:45:59;8.10;;;6.57;;
59089;SDS011;44878;50.102;18.982;2023-03-18T15:48:44;7.70;;;5.30;;
59089;SDS011;44878;50.102;18.982;2023-03-18T15:51:28;7.90;;;5.30;;
59089;SDS011;44878;50.102;18.982;2023-03-18T15:54:16;7.25;;;5.60;;
59089;SDS011;44878;50.102;18.982;2023-03-18T15:56:43;9.43;;;6.25;;
59089;SDS011;44878;50.102;18.982;2023-03-18T15:59:28;9.75;;;5.43;;
59089;SDS011;44878;50.102;18.982;2023-03-18T16:01:57;7.00;;;5.40;;
59089;SDS011;44878;50.102;18.982;2023-03-18T16:04:27;15.63;;;14.13;;
59089;SDS011;44878;50.102;18.982;2023-03-18T16:06:57;6.63;;;5.15;;
59089;SDS011;44878;50.102;18.982;2023-03-18T16:09:24;7.82;;;5.60;;
59089;SDS011;44878;50.102;18.982;2023-03-18T16:11:51;9.75;;;5.53;;
59089;SDS011;44878;50.102;18.982;2023-03-18T16:14:18;9.18;;;5.93;;
59089;SDS011;44878;50.102;18.982;2023-03-18T16:16:45;8.88;;;6.03;;
59089;SDS011;44878;50.102;18.982;2023-03-18T16:19:15;9.88;;;5.97;;
59089;SDS011;44878;50.102;18.982;2023-03-18T16:21:42;17.70;;;15.30;;
59089;SDS011;44878;50.102;18.982;2023-03-18T16:24:09;12.48;;;8.95;;
59089;SDS011;44878;50.102;18.982;2023-03-18T16:26:36;9.10;;;6.95;;
59089;SDS011;44878;50.102;18.982;2023-03-18T16:29:04;8.45;;;6.88;;
59089;SDS011;44878;50.102;18.982;2023-03-18T16:31:36;7.93;;;5.97;;